sensor_id;sensor_type;location;lat;lon;timestamp;P1;durP1;ratioP1;P2;durP2;ratioP2
48629;SDS011;34426;52.180;4.462;2022-12-29T00:01:07;4.53;;;2.38;;
48629;SDS011;34426;52.180;4.462;2022-12-29T00:03:32;7.13;;;2.38;;
48629;SDS011;34426;52.180;4.462;2022-12-29T00:05:58;5.68;;;2.50;;
48629;SDS011;34426;52.180;4.462;2022-12-29T00:08:23;5.00;;;2.13;;
48629;SDS011;34426;52.180;4.462;2022-12-29T00:10:49;6.18;;;1.88;;
48629;SDS011;34426;52.180;4.462;2022-12-29T00:13:14;5.28;;;1.83;;
48629;SDS011;34426;52.180;4.462;2022-12-29T00:15:41;9.55;;;2.95;;
48629;SDS011;34426;52.180;4.462;2022-12-29T00:18:07;7.85;;;1.70;;
48629;SDS011;34426;52.180;4.462;2022-12-29T00:20:33;2.65;;;1.92;;
48629;SDS011;34426;52.180;4.462;2022-12-29T00:22:59;4.63;;;1.85;;
48629;SDS011;34426;52.180;4.462;2022-12-29T00:25:25;8.35;;;2.17;;
48629;SDS011;34426;52.180;4.462;2022-12-29T00:27:50;2.55;;;1.58;;
48629;SDS011;34426;52.180;4.462;2022-12-29T00:30:16;3.72;;;1.60;;
48629;SDS011;34426;52.180;4.462;2022-12-29T00:32:44;6.18;;;1.48;;
48629;SDS011;34426;52.180;4.462;2022-12-29T00:35:10;5.32;;;1.80;;
48629;SDS011;34426;52.180;4.462;2022-12-29T00:37:43;4.18;;;1.48;;
48629;SDS011;34426;52.180;4.462;2022-12-29T00:40:12;5.43;;;1.60;;
48629;SDS011;34426;52.180;4.462;2022-12-29T00:42:38;4.30;;;1.60;;
48629;SDS011;34426;52.180;4.462;2022-12-29T00:45:04;5.30;;;1.35;;
48629;SDS011;34426;52.180;4.462;2022-12-29T00:47:30;8.93;;;2.10;;
48629;SDS011;34426;52.180;4.462;2022-12-29T00:49:56;3.60;;;1.70;;
48629;SDS011;34426;52.180;4.462;2022-12-29T00:52:22;3.80;;;1.40;;
48629;SDS011;34426;52.180;4.462;2022-12-29T00:54:47;6.80;;;1.48;;
48629;SDS011;34426;52.180;4.462;2022-12-29T00:57:13;2.25;;;1.38;;
48629;SDS011;34426;52.180;4.462;2022-12-29T00:59:38;3.90;;;1.40;;
48629;SDS011;34426;52.180;4.462;2022-12-29T01:02:05;5.90;;;1.55;;
48629;SDS011;34426;52.180;4.462;2022-12-29T01:04:31;4.35;;;1.10;;
48629;SDS011;34426;52.180;4.462;2022-12-29T01:06:58;3.90;;;1.17;;
48629;SDS011;34426;52.180;4.462;2022-12-29T01:09:24;4.07;;;1.60;;
48629;SDS011;34426;52.180;4.462;2022-12-29T01:11:49;2.80;;;1.73;;
48629;SDS011;34426;52.180;4.462;2022-12-29T01:14:15;4.88;;;1.65;;
48629;SDS011;34426;52.180;4.462;2022-12-29T01:16:42;3.80;;;1.38;;
48629;SDS011;34426;52.180;4.462;2022-12-29T01:19:09;2.13;;;1.23;;
48629;SDS011;34426;52.180;4.462;2022-12-29T01:21:34;3.38;;;1.30;;
48629;SDS011;34426;52.180;4.462;2022-12-29T01:24:01;1.70;;;0.93;;
48629;SDS011;34426;52.180;4.462;2022-12-29T01:26:26;4.68;;;1.50;;
48629;SDS011;34426;52.180;4.462;2022-12-29T01:28:52;3.13;;;1.08;;
48629;SDS011;34426;52.180;4.462;2022-12-29T01:31:17;2.83;;;1.17;;
48629;SDS011;34426;52.180;4.462;2022-12-29T01:33:43;3.67;;;1.15;;
48629;SDS011;34426;52.180;4.462;2022-12-29T01:36:09;5.85;;;1.65;;
48629;SDS011;34426;52.180;4.462;2022-12-29T01:38:37;5.90;;;1.45;;
48629;SDS011;34426;52.180;4.462;2022-12-29T01:41:05;9.70;;;1.48;;
48629;SDS011;34426;52.180;4.462;2022-12-29T01:43:38;8.00;;;1.33;;
48629;SDS011;34426;52.180;4.462;2022-12-29T01:46:07;7.63;;;1.77;;
48629;SDS011;34426;52.180;4.462;2022-12-29T01:48:41;7.85;;;1.40;;
48629;SDS011;34426;52.180;4.462;2022-12-29T01:51:07;13.07;;;1.70;;
48629;SDS011;34426;52.180;4.462;2022-12-29T01:53:33;8.57;;;2.25;;
48629;SDS011;34426;52.180;4.462;2022-12-29T01:56:02;7.28;;;1.45;;
48629;SDS011;34426;52.180;4.462;2022-12-29T01:58:32;13.10;;;2.17;;
48629;SDS011;34426;52.180;4.462;2022-12-29T02:01:01;11.52;;;2.88;;
48629;SDS011;34426;52.180;4.462;2022-12-29T02:03:27;10.52;;;1.60;;
48629;SDS011;34426;52.180;4.462;2022-12-29T02:05:54;10.68;;;1.92;;
48629;SDS011;34426;52.180;4.462;2022-12-29T02:08:24;14.63;;;2.08;;
48629;SDS011;34426;52.180;4.462;2022-12-29T02:10:53;9.70;;;2.00;;
48629;SDS011;34426;52.180;4.462;2022-12-29T02:13:23;13.75;;;2.13;;
48629;SDS011;34426;52.180;4.462;2022-12-29T02:15:51;14.98;;;2.20;;
48629;SDS011;34426;52.180;4.462;2022-12-29T02:18:29;14.88;;;2.15;;
48629;SDS011;34426;52.180;4.462;2022-12-29T02:27:06;10.40;;;2.00;;
48629;SDS011;34426;52.180;4.462;2022-12-29T02:32:47;11.82;;;1.52;;
48629;SDS011;34426;52.180;4.462;2022-12-29T02:35:20;12.73;;;1.98;;
48629;SDS011;34426;52.180;4.462;2022-12-29T02:37:58;11.65;;;1.70;;
48629;SDS011;34426;52.180;4.462;2022-12-29T02:40:33;12.15;;;1.75;;
48629;SDS011;34426;52.180;4.462;2022-12-29T02:43:04;13.00;;;2.45;;
48629;SDS011;34426;52.180;4.462;2022-12-29T02:45:42;12.10;;;2.08;;
48629;SDS011;34426;52.180;4.462;2022-12-29T02:48:15;12.93;;;1.95;;
48629;SDS011;34426;52.180;4.462;2022-12-29T02:50:47;23.75;;;3.47;;
48629;SDS011;34426;52.180;4.462;2022-12-29T02:53:18;18.95;;;2.97;;
48629;SDS011;34426;52.180;4.462;2022-12-29T02:55:47;16.23;;;2.67;;
48629;SDS011;34426;52.180;4.462;2022-12-29T02:58:15;16.23;;;2.65;;
48629;SDS011;34426;52.180;4.462;2022-12-29T03:00:46;16.02;;;2.92;;
48629;SDS011;34426;52.180;4.462;2022-12-29T03:03:21;21.98;;;3.90;;
48629;SDS011;34426;52.180;4.462;2022-12-29T03:06:05;17.00;;;3.03;;
48629;SDS011;34426;52.180;4.462;2022-12-29T03:08:48;23.65;;;3.40;;
48629;SDS011;34426;52.180;4.462;2022-12-29T03:11:19;26.58;;;3.50;;
48629;SDS011;34426;52.180;4.462;2022-12-29T03:13:46;21.42;;;3.70;;
48629;SDS011;34426;52.180;4.462;2022-12-29T03:16:18;22.10;;;2.95;;
48629;SDS011;34426;52.180;4.462;2022-12-29T03:18:51;25.98;;;4.78;;
48629;SDS011;34426;52.180;4.462;2022-12-29T03:21:24;18.27;;;2.85;;
48629;SDS011;34426;52.180;4.462;2022-12-29T03:23:57;10.20;;;2.40;;
48629;SDS011;34426;52.180;4.462;2022-12-29T03:26:22;17.90;;;2.83;;
48629;SDS011;34426;52.180;4.462;2022-12-29T03:28:49;22.13;;;3.33;;
48629;SDS011;34426;52.180;4.462;2022-12-29T03:31:18;19.60;;;2.90;;
48629;SDS011;34426;52.180;4.462;2022-12-29T03:33:45;26.90;;;4.45;;
48629;SDS011;34426;52.180;4.462;2022-12-29T03:36:23;30.52;;;4.80;;
48629;SDS011;34426;52.180;4.462;2022-12-29T03:38:55;25.08;;;4.15;;
48629;SDS011;34426;52.180;4.462;2022-12-29T03:41:26;23.52;;;4.40;;
48629;SDS011;34426;52.180;4.462;2022-12-29T03:43:54;25.90;;;3.70;;
48629;SDS011;34426;52.180;4.462;2022-12-29T03:46:20;24.02;;;3.80;;
48629;SDS011;34426;52.180;4.462;2022-12-29T03:48:45;22.20;;;3.30;;
48629;SDS011;34426;52.180;4.462;2022-12-29T03:51:11;21.67;;;4.10;;
48629;SDS011;34426;52.180;4.462;2022-12-29T03:53:38;28.27;;;4.32;;
48629;SDS011;34426;52.180;4.462;2022-12-29T03:56:03;21.45;;;3.42;;
48629;SDS011;34426;52.180;4.462;2022-12-29T03:58:29;19.40;;;3.30;;
48629;SDS011;34426;52.180;4.462;2022-12-29T04:00:54;27.08;;;3.38;;
48629;SDS011;34426;52.180;4.462;2022-12-29T04:03:20;19.35;;;3.25;;
48629;SDS011;34426;52.180;4.462;2022-12-29T04:05:45;18.45;;;3.15;;
48629;SDS011;34426;52.180;4.462;2022-12-29T04:08:10;17.05;;;3.08;;
48629;SDS011;34426;52.180;4.462;2022-12-29T04:10:37;18.42;;;3.25;;
48629;SDS011;34426;52.180;4.462;2022-12-29T04:13:03;18.75;;;4.00;;
48629;SDS011;34426;52.180;4.462;2022-12-29T04:15:28;23.13;;;4.13;;
48629;SDS011;34426;52.180;4.462;2022-12-29T04:17:54;26.98;;;3.75;;
48629;SDS011;34426;52.180;4.462;2022-12-29T04:20:19;20.63;;;3.72;;
48629;SDS011;34426;52.180;4.462;2022-12-29T04:22:44;34.22;;;5.32;;
48629;SDS011;34426;52.180;4.462;2022-12-29T04:25:10;29.45;;;5.07;;
48629;SDS011;34426;52.180;4.462;2022-12-29T04:27:37;32.00;;;5.40;;
48629;SDS011;34426;52.180;4.462;2022-12-29T04:30:02;35.38;;;4.70;;
48629;SDS011;34426;52.180;4.462;2022-12-29T04:32:28;35.47;;;4.82;;
48629;SDS011;34426;52.180;4.462;2022-12-29T04:34:54;34.20;;;4.97;;
48629;SDS011;34426;52.180;4.462;2022-12-29T04:37:19;32.58;;;4.97;;
48629;SDS011;34426;52.180;4.462;2022-12-29T04:39:45;32.22;;;4.70;;
48629;SDS011;34426;52.180;4.462;2022-12-29T04:42:10;22.73;;;4.22;;
48629;SDS011;34426;52.180;4.462;2022-12-29T04:44:37;32.28;;;4.50;;
48629;SDS011;34426;52.180;4.462;2022-12-29T04:47:02;27.60;;;3.90;;
48629;SDS011;34426;52.180;4.462;2022-12-29T04:49:28;23.60;;;3.33;;
48629;SDS011;34426;52.180;4.462;2022-12-29T04:51:53;19.73;;;3.38;;
48629;SDS011;34426;52.180;4.462;2022-12-29T04:54:19;21.23;;;4.50;;
48629;SDS011;34426;52.180;4.462;2022-12-29T04:56:44;27.10;;;4.05;;
48629;SDS011;34426;52.180;4.462;2022-12-29T04:59:10;20.85;;;3.65;;
48629;SDS011;34426;52.180;4.462;2022-12-29T05:01:36;26.92;;;5.03;;
48629;SDS011;34426;52.180;4.462;2022-12-29T05:04:02;20.85;;;3.67;;
48629;SDS011;34426;52.180;4.462;2022-12-29T05:06:27;22.40;;;3.58;;
48629;SDS011;34426;52.180;4.462;2022-12-29T05:08:53;28.90;;;4.40;;
48629;SDS011;34426;52.180;4.462;2022-12-29T05:11:18;25.98;;;5.93;;
48629;SDS011;34426;52.180;4.462;2022-12-29T05:13:44;24.05;;;4.53;;
48629;SDS011;34426;52.180;4.462;2022-12-29T05:16:10;23.13;;;3.67;;
48629;SDS011;34426;52.180;4.462;2022-12-29T05:18:37;26.30;;;3.83;;
48629;SDS011;34426;52.180;4.462;2022-12-29T05:21:02;32.55;;;4.10;;
48629;SDS011;34426;52.180;4.462;2022-12-29T05:23:28;28.35;;;3.95;;
48629;SDS011;34426;52.180;4.462;2022-12-29T05:25:53;20.17;;;4.47;;
48629;SDS011;34426;52.180;4.462;2022-12-29T05:28:19;24.33;;;3.67;;
48629;SDS011;34426;52.180;4.462;2022-12-29T05:30:47;21.10;;;4.20;;
48629;SDS011;34426;52.180;4.462;2022-12-29T05:33:13;26.83;;;3.67;;
48629;SDS011;34426;52.180;4.462;2022-12-29T05:35:40;24.65;;;3.95;;
48629;SDS011;34426;52.180;4.462;2022-12-29T05:38:05;25.58;;;3.67;;
48629;SDS011;34426;52.180;4.462;2022-12-29T05:40:30;30.23;;;3.88;;
48629;SDS011;34426;52.180;4.462;2022-12-29T05:42:56;21.48;;;3.80;;
48629;SDS011;34426;52.180;4.462;2022-12-29T05:45:21;27.67;;;3.75;;
48629;SDS011;34426;52.180;4.462;2022-12-29T05:47:47;26.92;;;4.05;;
48629;SDS011;34426;52.180;4.462;2022-12-29T05:50:12;25.92;;;4.38;;
48629;SDS011;34426;52.180;4.462;2022-12-29T05:52:39;22.08;;;3.85;;
48629;SDS011;34426;52.180;4.462;2022-12-29T05:55:05;34.72;;;4.90;;
48629;SDS011;34426;52.180;4.462;2022-12-29T05:57:31;27.25;;;4.05;;
48629;SDS011;34426;52.180;4.462;2022-12-29T05:59:56;21.95;;;4.38;;
48629;SDS011;34426;52.180;4.462;2022-12-29T06:02:22;24.90;;;3.72;;
48629;SDS011;34426;52.180;4.462;2022-12-29T06:04:47;35.58;;;4.22;;
48629;SDS011;34426;52.180;4.462;2022-12-29T06:07:13;25.90;;;4.13;;
48629;SDS011;34426;52.180;4.462;2022-12-29T06:09:40;28.65;;;4.90;;
48629;SDS011;34426;52.180;4.462;2022-12-29T06:12:05;26.30;;;4.40;;
48629;SDS011;34426;52.180;4.462;2022-12-29T06:14:31;24.05;;;4.55;;
48629;SDS011;34426;52.180;4.462;2022-12-29T06:16:56;22.60;;;3.88;;
48629;SDS011;34426;52.180;4.462;2022-12-29T06:19:22;26.13;;;3.80;;
48629;SDS011;34426;52.180;4.462;2022-12-29T06:21:47;25.58;;;4.55;;
48629;SDS011;34426;52.180;4.462;2022-12-29T06:24:13;27.15;;;4.55;;
48629;SDS011;34426;52.180;4.462;2022-12-29T06:26:39;30.50;;;4.60;;
48629;SDS011;34426;52.180;4.462;2022-12-29T06:29:05;31.52;;;5.00;;
48629;SDS011;34426;52.180;4.462;2022-12-29T06:31:30;31.05;;;5.82;;
48629;SDS011;34426;52.180;4.462;2022-12-29T06:33:56;34.03;;;4.88;;
48629;SDS011;34426;52.180;4.462;2022-12-29T06:36:21;25.45;;;4.95;;
48629;SDS011;34426;52.180;4.462;2022-12-29T06:38:47;51.47;;;6.18;;
48629;SDS011;34426;52.180;4.462;2022-12-29T06:41:12;29.95;;;4.60;;
48629;SDS011;34426;52.180;4.462;2022-12-29T06:43:39;48.80;;;7.32;;
48629;SDS011;34426;52.180;4.462;2022-12-29T06:46:04;39.92;;;5.95;;
48629;SDS011;34426;52.180;4.462;2022-12-29T06:48:30;42.50;;;7.10;;
48629;SDS011;34426;52.180;4.462;2022-12-29T06:50:55;36.00;;;5.05;;
48629;SDS011;34426;52.180;4.462;2022-12-29T06:53:21;48.65;;;6.28;;
48629;SDS011;34426;52.180;4.462;2022-12-29T06:55:46;44.45;;;6.35;;
48629;SDS011;34426;52.180;4.462;2022-12-29T06:58:12;45.75;;;6.75;;
48629;SDS011;34426;52.180;4.462;2022-12-29T07:00:39;43.40;;;8.23;;
48629;SDS011;34426;52.180;4.462;2022-12-29T07:03:04;47.50;;;7.30;;
48629;SDS011;34426;52.180;4.462;2022-12-29T07:05:30;52.90;;;6.10;;
48629;SDS011;34426;52.180;4.462;2022-12-29T07:07:55;44.35;;;6.53;;
48629;SDS011;34426;52.180;4.462;2022-12-29T07:10:21;37.25;;;6.70;;
48629;SDS011;34426;52.180;4.462;2022-12-29T07:12:46;37.70;;;6.25;;
48629;SDS011;34426;52.180;4.462;2022-12-29T07:15:12;43.08;;;6.55;;
48629;SDS011;34426;52.180;4.462;2022-12-29T07:17:39;36.22;;;5.75;;
48629;SDS011;34426;52.180;4.462;2022-12-29T07:20:05;27.65;;;4.70;;
48629;SDS011;34426;52.180;4.462;2022-12-29T07:22:31;47.05;;;7.57;;
48629;SDS011;34426;52.180;4.462;2022-12-29T07:24:57;26.23;;;4.95;;
48629;SDS011;34426;52.180;4.462;2022-12-29T07:27:22;42.85;;;5.93;;
48629;SDS011;34426;52.180;4.462;2022-12-29T07:29:48;38.13;;;5.50;;
48629;SDS011;34426;52.180;4.462;2022-12-29T07:32:13;36.78;;;5.72;;
48629;SDS011;34426;52.180;4.462;2022-12-29T07:34:40;37.58;;;6.05;;
48629;SDS011;34426;52.180;4.462;2022-12-29T07:37:05;39.33;;;7.45;;
48629;SDS011;34426;52.180;4.462;2022-12-29T07:39:31;32.78;;;5.10;;
48629;SDS011;34426;52.180;4.462;2022-12-29T07:41:56;38.63;;;6.93;;
48629;SDS011;34426;52.180;4.462;2022-12-29T07:44:22;38.63;;;6.07;;
48629;SDS011;34426;52.180;4.462;2022-12-29T07:46:47;38.20;;;5.70;;
48629;SDS011;34426;52.180;4.462;2022-12-29T07:49:13;31.83;;;5.47;;
48629;SDS011;34426;52.180;4.462;2022-12-29T07:51:40;36.53;;;5.93;;
48629;SDS011;34426;52.180;4.462;2022-12-29T07:54:05;35.25;;;5.63;;
48629;SDS011;34426;52.180;4.462;2022-12-29T07:56:30;32.28;;;5.80;;
48629;SDS011;34426;52.180;4.462;2022-12-29T07:58:56;37.67;;;5.60;;
48629;SDS011;34426;52.180;4.462;2022-12-29T08:01:21;42.35;;;5.70;;
48629;SDS011;34426;52.180;4.462;2022-12-29T08:03:47;37.00;;;6.15;;
48629;SDS011;34426;52.180;4.462;2022-12-29T08:06:12;36.85;;;6.00;;
48629;SDS011;34426;52.180;4.462;2022-12-29T08:08:39;38.47;;;6.20;;
48629;SDS011;34426;52.180;4.462;2022-12-29T08:11:04;49.65;;;5.53;;
48629;SDS011;34426;52.180;4.462;2022-12-29T08:13:30;37.75;;;5.57;;
48629;SDS011;34426;52.180;4.462;2022-12-29T08:15:57;35.83;;;5.85;;
48629;SDS011;34426;52.180;4.462;2022-12-29T08:18:22;33.97;;;5.38;;
48629;SDS011;34426;52.180;4.462;2022-12-29T08:20:48;43.75;;;6.30;;
48629;SDS011;34426;52.180;4.462;2022-12-29T08:23:13;30.17;;;5.80;;
48629;SDS011;34426;52.180;4.462;2022-12-29T08:25:40;44.72;;;6.15;;
48629;SDS011;34426;52.180;4.462;2022-12-29T08:28:05;54.95;;;7.78;;
48629;SDS011;34426;52.180;4.462;2022-12-29T08:30:31;37.10;;;5.57;;
48629;SDS011;34426;52.180;4.462;2022-12-29T08:32:56;40.05;;;5.50;;
48629;SDS011;34426;52.180;4.462;2022-12-29T08:35:22;35.00;;;5.13;;
48629;SDS011;34426;52.180;4.462;2022-12-29T08:37:47;36.45;;;5.47;;
48629;SDS011;34426;52.180;4.462;2022-12-29T08:40:13;47.88;;;6.45;;
48629;SDS011;34426;52.180;4.462;2022-12-29T08:42:40;38.47;;;6.28;;
48629;SDS011;34426;52.180;4.462;2022-12-29T08:45:06;35.92;;;5.90;;
48629;SDS011;34426;52.180;4.462;2022-12-29T08:47:32;31.08;;;6.28;;
48629;SDS011;34426;52.180;4.462;2022-12-29T08:49:57;27.02;;;4.50;;
48629;SDS011;34426;52.180;4.462;2022-12-29T08:52:23;33.45;;;5.50;;
48629;SDS011;34426;52.180;4.462;2022-12-29T08:54:48;37.25;;;5.30;;
48629;SDS011;34426;52.180;4.462;2022-12-29T08:57:14;37.00;;;4.80;;
48629;SDS011;34426;52.180;4.462;2022-12-29T08:59:40;35.78;;;5.90;;
48629;SDS011;34426;52.180;4.462;2022-12-29T09:02:08;25.45;;;4.57;;
48629;SDS011;34426;52.180;4.462;2022-12-29T09:04:35;41.17;;;6.32;;
48629;SDS011;34426;52.180;4.462;2022-12-29T09:07:00;33.70;;;5.93;;
48629;SDS011;34426;52.180;4.462;2022-12-29T09:09:26;34.25;;;5.25;;
48629;SDS011;34426;52.180;4.462;2022-12-29T09:11:51;41.58;;;6.05;;
48629;SDS011;34426;52.180;4.462;2022-12-29T09:14:17;44.58;;;6.97;;
48629;SDS011;34426;52.180;4.462;2022-12-29T09:16:44;39.83;;;6.47;;
48629;SDS011;34426;52.180;4.462;2022-12-29T09:19:09;40.17;;;6.25;;
48629;SDS011;34426;52.180;4.462;2022-12-29T09:21:34;46.92;;;5.80;;
48629;SDS011;34426;52.180;4.462;2022-12-29T09:24:00;38.22;;;6.60;;
48629;SDS011;34426;52.180;4.462;2022-12-29T09:26:25;56.70;;;7.40;;
48629;SDS011;34426;52.180;4.462;2022-12-29T09:28:51;51.22;;;6.50;;
48629;SDS011;34426;52.180;4.462;2022-12-29T09:31:16;50.75;;;7.60;;
48629;SDS011;34426;52.180;4.462;2022-12-29T09:33:43;39.25;;;6.80;;
48629;SDS011;34426;52.180;4.462;2022-12-29T09:36:08;50.92;;;7.57;;
48629;SDS011;34426;52.180;4.462;2022-12-29T09:38:34;58.47;;;8.15;;
48629;SDS011;34426;52.180;4.462;2022-12-29T09:41:01;48.40;;;7.60;;
48629;SDS011;34426;52.180;4.462;2022-12-29T09:46:24;65.00;;;11.70;;
48629;SDS011;34426;52.180;4.462;2022-12-29T09:48:53;67.07;;;8.88;;
48629;SDS011;34426;52.180;4.462;2022-12-29T09:51:29;68.13;;;10.93;;
48629;SDS011;34426;52.180;4.462;2022-12-29T09:53:57;66.05;;;10.40;;
48629;SDS011;34426;52.180;4.462;2022-12-29T09:56:25;64.03;;;9.07;;
48629;SDS011;34426;52.180;4.462;2022-12-29T09:58:53;70.05;;;8.52;;
48629;SDS011;34426;52.180;4.462;2022-12-29T10:01:25;54.58;;;9.25;;
48629;SDS011;34426;52.180;4.462;2022-12-29T10:03:56;53.40;;;9.05;;
48629;SDS011;34426;52.180;4.462;2022-12-29T10:06:24;61.53;;;9.18;;
48629;SDS011;34426;52.180;4.462;2022-12-29T10:08:55;71.13;;;10.20;;
48629;SDS011;34426;52.180;4.462;2022-12-29T10:11:29;63.72;;;9.95;;
48629;SDS011;34426;52.180;4.462;2022-12-29T10:14:10;74.38;;;11.90;;
48629;SDS011;34426;52.180;4.462;2022-12-29T10:16:43;60.30;;;8.98;;
48629;SDS011;34426;52.180;4.462;2022-12-29T10:19:21;64.90;;;9.20;;
48629;SDS011;34426;52.180;4.462;2022-12-29T10:21:59;61.25;;;9.27;;
48629;SDS011;34426;52.180;4.462;2022-12-29T10:24:34;66.60;;;8.88;;
48629;SDS011;34426;52.180;4.462;2022-12-29T10:27:02;62.50;;;8.75;;
48629;SDS011;34426;52.180;4.462;2022-12-29T10:29:32;57.00;;;9.55;;
48629;SDS011;34426;52.180;4.462;2022-12-29T10:32:02;56.10;;;8.15;;
48629;SDS011;34426;52.180;4.462;2022-12-29T10:34:34;57.05;;;8.63;;
48629;SDS011;34426;52.180;4.462;2022-12-29T10:37:03;41.95;;;7.32;;
48629;SDS011;34426;52.180;4.462;2022-12-29T10:39:37;55.30;;;8.18;;
48629;SDS011;34426;52.180;4.462;2022-12-29T10:42:09;45.47;;;7.70;;
48629;SDS011;34426;52.180;4.462;2022-12-29T10:44:38;54.78;;;8.23;;
48629;SDS011;34426;52.180;4.462;2022-12-29T10:47:04;52.83;;;8.20;;
48629;SDS011;34426;52.180;4.462;2022-12-29T10:49:34;44.03;;;7.45;;
48629;SDS011;34426;52.180;4.462;2022-12-29T10:52:04;51.20;;;6.90;;
48629;SDS011;34426;52.180;4.462;2022-12-29T10:54:32;49.58;;;7.97;;
48629;SDS011;34426;52.180;4.462;2022-12-29T10:57:03;39.45;;;6.70;;
48629;SDS011;34426;52.180;4.462;2022-12-29T10:59:35;43.55;;;6.22;;
48629;SDS011;34426;52.180;4.462;2022-12-29T11:02:06;39.03;;;5.93;;
48629;SDS011;34426;52.180;4.462;2022-12-29T11:04:51;34.13;;;5.07;;
48629;SDS011;34426;52.180;4.462;2022-12-29T11:07:23;36.35;;;5.88;;
48629;SDS011;34426;52.180;4.462;2022-12-29T11:09:49;40.75;;;5.65;;
48629;SDS011;34426;52.180;4.462;2022-12-29T11:12:19;36.28;;;5.40;;
48629;SDS011;34426;52.180;4.462;2022-12-29T11:14:47;35.88;;;4.80;;
48629;SDS011;34426;52.180;4.462;2022-12-29T11:17:25;28.15;;;4.68;;
48629;SDS011;34426;52.180;4.462;2022-12-29T11:19:52;32.22;;;6.38;;
48629;SDS011;34426;52.180;4.462;2022-12-29T11:22:20;37.42;;;6.60;;
48629;SDS011;34426;52.180;4.462;2022-12-29T11:24:48;29.50;;;4.40;;
48629;SDS011;34426;52.180;4.462;2022-12-29T11:27:16;37.50;;;6.93;;
48629;SDS011;34426;52.180;4.462;2022-12-29T11:29:44;41.67;;;5.55;;
48629;SDS011;34426;52.180;4.462;2022-12-29T11:32:11;28.02;;;5.07;;
48629;SDS011;34426;52.180;4.462;2022-12-29T11:34:38;26.88;;;4.47;;
48629;SDS011;34426;52.180;4.462;2022-12-29T11:37:05;27.00;;;4.85;;
48629;SDS011;34426;52.180;4.462;2022-12-29T11:39:39;31.43;;;4.87;;
48629;SDS011;34426;52.180;4.462;2022-12-29T11:42:12;31.50;;;4.53;;
48629;SDS011;34426;52.180;4.462;2022-12-29T11:44:42;19.55;;;3.45;;
48629;SDS011;34426;52.180;4.462;2022-12-29T11:47:09;25.98;;;4.68;;
48629;SDS011;34426;52.180;4.462;2022-12-29T11:49:39;35.05;;;4.63;;
48629;SDS011;34426;52.180;4.462;2022-12-29T11:52:06;33.67;;;5.00;;
48629;SDS011;34426;52.180;4.462;2022-12-29T11:54:32;31.98;;;4.70;;
48629;SDS011;34426;52.180;4.462;2022-12-29T11:57:08;30.85;;;4.63;;
48629;SDS011;34426;52.180;4.462;2022-12-29T11:59:37;28.92;;;4.22;;
48629;SDS011;34426;52.180;4.462;2022-12-29T12:02:21;27.85;;;4.32;;
48629;SDS011;34426;52.180;4.462;2022-12-29T12:04:53;27.95;;;3.85;;
48629;SDS011;34426;52.180;4.462;2022-12-29T12:07:38;31.45;;;6.13;;
48629;SDS011;34426;52.180;4.462;2022-12-29T12:10:06;34.30;;;4.38;;
48629;SDS011;34426;52.180;4.462;2022-12-29T12:12:41;18.80;;;4.18;;
48629;SDS011;34426;52.180;4.462;2022-12-29T12:15:13;34.05;;;3.75;;
48629;SDS011;34426;52.180;4.462;2022-12-29T12:17:46;21.42;;;3.38;;
48629;SDS011;34426;52.180;4.462;2022-12-29T12:20:17;26.50;;;3.90;;
48629;SDS011;34426;52.180;4.462;2022-12-29T12:22:48;24.98;;;3.80;;
48629;SDS011;34426;52.180;4.462;2022-12-29T12:25:20;23.38;;;4.93;;
48629;SDS011;34426;52.180;4.462;2022-12-29T12:27:48;24.77;;;3.65;;
48629;SDS011;34426;52.180;4.462;2022-12-29T12:30:19;30.90;;;3.85;;
48629;SDS011;34426;52.180;4.462;2022-12-29T12:32:46;31.73;;;4.10;;
48629;SDS011;34426;52.180;4.462;2022-12-29T12:35:16;31.65;;;5.20;;
48629;SDS011;34426;52.180;4.462;2022-12-29T12:37:58;32.88;;;5.22;;
48629;SDS011;34426;52.180;4.462;2022-12-29T12:40:39;32.22;;;5.35;;
48629;SDS011;34426;52.180;4.462;2022-12-29T12:43:31;28.73;;;4.38;;
48629;SDS011;34426;52.180;4.462;2022-12-29T12:46:06;32.95;;;4.45;;
48629;SDS011;34426;52.180;4.462;2022-12-29T12:49:01;30.08;;;5.60;;
48629;SDS011;34426;52.180;4.462;2022-12-29T12:51:44;31.35;;;4.15;;
48629;SDS011;34426;52.180;4.462;2022-12-29T12:54:24;25.98;;;4.10;;
48629;SDS011;34426;52.180;4.462;2022-12-29T12:57:02;20.45;;;3.35;;
48629;SDS011;34426;52.180;4.462;2022-12-29T12:59:39;24.50;;;4.70;;
48629;SDS011;34426;52.180;4.462;2022-12-29T13:02:21;23.60;;;4.00;;
48629;SDS011;34426;52.180;4.462;2022-12-29T13:05:02;31.10;;;3.67;;
48629;SDS011;34426;52.180;4.462;2022-12-29T13:07:40;21.30;;;3.38;;
48629;SDS011;34426;52.180;4.462;2022-12-29T13:10:25;25.08;;;3.78;;
48629;SDS011;34426;52.180;4.462;2022-12-29T13:13:03;23.35;;;4.43;;
48629;SDS011;34426;52.180;4.462;2022-12-29T13:15:54;20.77;;;4.07;;
48629;SDS011;34426;52.180;4.462;2022-12-29T13:18:25;22.27;;;3.70;;
48629;SDS011;34426;52.180;4.462;2022-12-29T13:20:57;28.85;;;3.78;;
48629;SDS011;34426;52.180;4.462;2022-12-29T13:23:32;30.20;;;4.50;;
48629;SDS011;34426;52.180;4.462;2022-12-29T13:26:08;29.20;;;4.70;;
48629;SDS011;34426;52.180;4.462;2022-12-29T13:28:42;24.42;;;4.18;;
48629;SDS011;34426;52.180;4.462;2022-12-29T13:31:15;28.42;;;4.70;;
48629;SDS011;34426;52.180;4.462;2022-12-29T13:33:49;30.33;;;5.25;;
48629;SDS011;34426;52.180;4.462;2022-12-29T13:36:24;24.67;;;3.67;;
48629;SDS011;34426;52.180;4.462;2022-12-29T13:38:56;26.40;;;4.47;;
48629;SDS011;34426;52.180;4.462;2022-12-29T13:41:32;29.35;;;5.30;;
48629;SDS011;34426;52.180;4.462;2022-12-29T13:44:00;34.30;;;5.38;;
48629;SDS011;34426;52.180;4.462;2022-12-29T13:46:28;36.03;;;5.40;;
48629;SDS011;34426;52.180;4.462;2022-12-29T13:48:58;37.92;;;6.60;;
48629;SDS011;34426;52.180;4.462;2022-12-29T13:51:27;36.05;;;5.63;;
48629;SDS011;34426;52.180;4.462;2022-12-29T13:54:00;30.85;;;4.90;;
48629;SDS011;34426;52.180;4.462;2022-12-29T13:56:38;22.42;;;4.30;;
48629;SDS011;34426;52.180;4.462;2022-12-29T13:59:09;39.58;;;5.22;;
48629;SDS011;34426;52.180;4.462;2022-12-29T14:01:43;31.77;;;4.30;;
48629;SDS011;34426;52.180;4.462;2022-12-29T14:04:20;28.77;;;4.47;;
48629;SDS011;34426;52.180;4.462;2022-12-29T14:06:48;27.17;;;3.90;;
48629;SDS011;34426;52.180;4.462;2022-12-29T14:09:33;28.88;;;4.53;;
48629;SDS011;34426;52.180;4.462;2022-12-29T14:12:19;27.08;;;3.85;;
48629;SDS011;34426;52.180;4.462;2022-12-29T14:15:13;22.30;;;4.00;;
48629;SDS011;34426;52.180;4.462;2022-12-29T14:17:45;32.75;;;4.20;;
48629;SDS011;34426;52.180;4.462;2022-12-29T14:20:27;25.27;;;5.13;;
48629;SDS011;34426;52.180;4.462;2022-12-29T14:22:57;28.13;;;4.00;;
48629;SDS011;34426;52.180;4.462;2022-12-29T14:28:24;34.90;;;4.40;;
48629;SDS011;34426;52.180;4.462;2022-12-29T14:30:51;36.45;;;4.93;;
48629;SDS011;34426;52.180;4.462;2022-12-29T14:33:18;25.98;;;4.95;;
48629;SDS011;34426;52.180;4.462;2022-12-29T14:35:44;33.25;;;4.53;;
48629;SDS011;34426;52.180;4.462;2022-12-29T14:44:00;30.60;;;5.45;;
48629;SDS011;34426;52.180;4.462;2022-12-29T14:46:42;32.65;;;5.18;;
48629;SDS011;34426;52.180;4.462;2022-12-29T14:49:16;37.25;;;5.20;;
48629;SDS011;34426;52.180;4.462;2022-12-29T14:51:44;33.28;;;4.75;;
48629;SDS011;34426;52.180;4.462;2022-12-29T14:57:15;37.42;;;4.97;;
48629;SDS011;34426;52.180;4.462;2022-12-29T14:59:57;38.75;;;5.32;;
48629;SDS011;34426;52.180;4.462;2022-12-29T15:02:32;38.83;;;5.78;;
48629;SDS011;34426;52.180;4.462;2022-12-29T15:07:28;34.13;;;5.50;;
48629;SDS011;34426;52.180;4.462;2022-12-29T15:09:56;32.55;;;5.90;;
48629;SDS011;34426;52.180;4.462;2022-12-29T15:12:28;32.10;;;5.93;;